Time;durP1;ratioP1;P1;durP2;ratioP2;P2;SDS_P1;SDS_P2;PMS_P1;PMS_P2;Temp;Humidity;BMP_temperature;BMP_pressure;BME280_temperature;BME280_humidity;BME280_pressure;Samples;Min_cycle;Max_cycle;Signal;HPM_P1;HPM_P2
2022/11/30 00:00:34;;;;;;;23.55;13.57;;;;;;;4.61;83.64;92680.78;2071452;69;20206;-73
2022/11/30 00:03:00;;;;;;;19.48;12.20;;;;;;;4.70;83.05;92679.41;2071074;69;20159;-83
2022/11/30 00:05:26;;;;;;;20.00;12.63;;;;;;;4.71;82.73;92678.09;2071208;69;20161;-73
2022/11/30 00:07:53;;;;;;;19.58;12.85;;;;;;;4.82;82.25;92681.13;2070971;69;20156;-71
2022/11/30 00:10:20;;;;;;;19.95;12.15;;;;;;;4.88;81.68;92680.16;2067624;69;20168;-71
2022/11/30 00:12:46;;;;;;;18.67;12.30;;;;;;;4.83;81.95;92676.28;2071205;69;20187;-71
2022/11/30 00:15:15;;;;;;;18.85;11.75;;;;;;;4.84;81.75;92675.72;2067615;69;20536;-71
2022/11/30 00:17:42;;;;;;;17.92;12.52;;;;;;;4.78;82.18;92671.69;2070945;69;20160;-72
2022/11/30 00:20:10;;;;;;;17.65;11.90;;;;;;;4.77;81.94;92667.44;2071069;69;20209;-73
2022/11/30 00:22:35;;;;;;;17.77;12.07;;;;;;;4.76;81.96;92663.88;2070920;69;20166;-74
2022/11/30 00:25:03;;;;;;;24.60;12.02;;;;;;;4.75;82.66;92675.63;2071019;69;20558;-76
2022/11/30 00:27:33;;;;;;;19.38;12.30;;;;;;;4.79;82.27;92675.97;2071236;69;20153;-73
2022/11/30 00:29:59;;;;;;;19.50;12.50;;;;;;;4.66;83.27;92676.28;2071219;69;20630;-75
2022/11/30 00:32:26;;;;;;;21.77;12.73;;;;;;;4.66;82.90;92662.34;2068733;69;20166;-74
2022/11/30 00:34:52;;;;;;;17.77;11.48;;;;;;;4.54;83.13;92668.41;2067832;69;20155;-76
2022/11/30 00:37:21;;;;;;;19.73;12.60;;;;;;;4.50;83.52;92670.13;2067941;69;20137;-72
2022/11/30 00:39:47;;;;;;;21.15;13.13;;;;;;;4.48;84.31;92678.31;2064895;69;20148;-73
2022/11/30 00:42:12;;;;;;;21.27;12.63;;;;;;;4.47;83.86;92676.84;2067990;69;20565;-73
2022/11/30 00:44:38;;;;;;;19.52;12.32;;;;;;;4.38;84.75;92685.84;2064781;69;20168;-72
2022/11/30 00:47:04;;;;;;;18.55;11.98;;;;;;;4.57;83.57;92686.75;2068290;69;20131;-72
2022/11/30 00:49:32;;;;;;;17.70;11.82;;;;;;;4.58;83.46;92679.91;2068281;69;20133;-73
2022/11/30 00:52:02;;;;;;;20.00;11.93;;;;;;;4.47;84.01;92682.41;2068240;69;20129;-72
2022/11/30 00:54:28;;;;;;;19.63;11.50;;;;;;;4.58;83.49;92691.06;2068186;69;20129;-72
2022/11/30 00:56:55;;;;;;;19.15;12.27;;;;;;;4.67;83.32;92689.66;2068186;69;20645;-74
2022/11/30 00:59:20;;;;;;;17.05;12.15;;;;;;;4.50;83.20;92676.44;2067910;69;20650;-73
2022/11/30 01:01:46;;;;;;;19.90;12.68;;;;;;;4.62;82.88;92687.84;2067711;69;20162;-72
2022/11/30 01:04:11;;;;;;;19.95;12.23;;;;;;;4.61;83.37;92694.72;2067409;69;20151;-73
2022/11/30 01:06:37;;;;;;;36.85;13.35;;;;;;;4.54;83.96;92689.97;2067663;69;20159;-72
2022/11/30 01:09:03;;;;;;;21.48;12.23;;;;;;;4.38;84.67;92686.56;2067745;69;20509;-73
2022/11/30 01:11:30;;;;;;;30.17;13.35;;;;;;;4.40;85.34;92689.56;2067802;69;20247;-73
2022/11/30 01:13:58;;;;;;;32.30;12.82;;;;;;;4.58;84.61;92698.66;2068000;69;20256;-72
2022/11/30 01:16:27;;;;;;;20.73;12.73;;;;;;;4.56;83.86;92696.44;2064486;69;20234;-77
2022/11/30 01:18:52;;;;;;;29.38;14.15;;;;;;;4.57;84.07;92692.34;2067448;69;20211;-74
2022/11/30 01:21:20;;;;;;;22.98;13.38;;;;;;;4.63;83.83;92694.91;2067458;69;20625;-75
2022/11/30 01:23:47;;;;;;;23.48;14.52;;;;;;;4.47;84.39;92702.66;2067769;69;20211;-72
2022/11/30 01:26:13;;;;;;;24.27;13.00;;;;;;;4.49;84.15;92697.28;2067659;69;20557;-73
2022/11/30 01:28:39;;;;;;;23.50;13.65;;;;;;;4.50;84.06;92700.78;2067484;69;20153;-73
2022/11/30 01:31:12;;;;;;;21.90;13.10;;;;;;;4.58;83.77;92707.03;2067602;69;20646;-77
2022/11/30 01:33:40;;;;;;;22.65;14.20;;;;;;;4.70;83.00;92705.25;2067410;69;20156;-72
2022/11/30 01:36:10;;;;;;;21.33;14.18;;;;;;;4.67;83.05;92709.16;2067877;69;20184;-72
2022/11/30 01:38:42;;;;;;;23.88;14.88;;;;;;;4.66;82.61;92704.91;2068041;69;20279;-72
2022/11/30 01:41:09;;;;;;;26.02;15.00;;;;;;;4.51;83.87;92703.00;2067969;69;20140;-71
2022/11/30 01:43:49;;;;;;;23.23;14.93;;;;;;;4.63;83.78;92699.72;2068230;69;20780;-73
2022/11/30 01:46:37;;;;;;;38.95;16.65;;;;;;;4.20;85.00;92702.53;2068301;69;20153;-71
2022/11/30 01:49:15;;;;;;;33.28;15.93;;;;;;;4.47;85.00;92708.25;2068164;69;20175;-72
2022/11/30 01:51:51;;;;;;;32.10;15.70;;;;;;;4.41;84.82;92704.97;2068259;69;20149;-73
2022/11/30 01:54:24;;;;;;;28.77;15.82;;;;;;;4.47;84.95;92705.44;2067870;69;20252;-71
2022/11/30 01:57:02;;;;;;;25.85;15.82;;;;;;;4.57;84.22;92700.72;2068168;69;20159;-72
2022/11/30 01:59:28;;;;;;;34.15;16.45;;;;;;;4.55;84.29;92700.56;2062081;69;20524;-73
2022/11/30 02:01:58;;;;;;;32.72;16.60;;;;;;;4.44;84.75;92701.00;2065084;69;20137;-72
2022/11/30 02:04:28;;;;;;;49.97;18.83;;;;;;;4.22;85.67;92708.28;2068258;69;20151;-72
2022/11/30 02:06:58;;;;;;;30.20;16.58;;;;;;;4.41;85.60;92707.00;2068290;69;20535;-73
2022/11/30 02:09:26;;;;;;;32.80;17.08;;;;;;;4.55;84.63;92706.13;2064886;69;20136;-72
2022/11/30 02:11:53;;;;;;;30.92;16.85;;;;;;;4.67;83.79;92706.38;2068167;69;20163;-72
2022/11/30 02:14:41;;;;;;;27.10;16.52;;;;;;;4.73;82.94;92706.88;2064862;69;20143;-72
2022/11/30 02:17:16;;;;;;;29.65;17.35;;;;;;;4.73;83.01;92703.38;2068378;69;20239;-72
2022/11/30 02:20:07;;;;;;;28.52;17.27;;;;;;;4.75;82.81;92709.84;2068500;69;20164;-72
2022/11/30 02:22:49;;;;;;;30.45;18.10;;;;;;;4.68;82.94;92707.88;2068522;69;20223;-72
2022/11/30 02:25:33;;;;;;;31.27;18.05;;;;;;;4.73;82.42;92700.56;2068476;69;20144;-72
2022/11/30 02:28:17;;;;;;;31.17;18.23;;;;;;;4.75;82.72;92706.31;2068523;69;20163;-73
2022/11/30 02:30:48;;;;;;;31.88;17.75;;;;;;;4.79;81.98;92706.63;2068411;69;20163;-73
2022/11/30 02:33:17;;;;;;;32.75;18.27;;;;;;;4.77;82.28;92703.69;2068457;69;20227;-72
2022/11/30 02:35:48;;;;;;;34.70;18.83;;;;;;;4.79;82.26;92707.38;2065066;69;20194;-73
2022/11/30 02:38:18;;;;;;;30.83;18.20;;;;;;;4.76;82.41;92705.72;2068354;69;20210;-72
2022/11/30 02:40:44;;;;;;;32.83;19.23;;;;;;;4.82;82.05;92697.88;2069514;69;20213;-73
2022/11/30 02:43:12;;;;;;;31.80;18.45;;;;;;;4.75;82.52;92703.53;2071501;69;20543;-73
2022/11/30 02:45:51;;;;;;;31.38;18.27;;;;;;;4.71;82.57;92700.41;2071590;69;20141;-73
2022/11/30 02:48:49;;;;;;;34.13;19.50;;;;;;;4.39;83.76;92706.81;2071422;69;20156;-72
2022/11/30 02:51:21;;;;;;;34.22;19.48;;;;;;;4.25;85.05;92706.38;2064850;69;20615;-73
2022/11/30 02:53:48;;;;;;;35.17;19.67;;;;;;;4.44;84.19;92698.22;2071682;69;20180;-73
2022/11/30 02:56:14;;;;;;;33.38;20.15;;;;;;;4.42;84.21;92694.53;2071777;69;20227;-73
2022/11/30 02:58:40;;;;;;;34.42;20.20;;;;;;;4.25;85.21;92701.56;2071624;69;20143;-72
2022/11/30 03:01:06;;;;;;;33.58;19.15;;;;;;;4.37;84.49;92699.03;2071724;69;20512;-76
2022/11/30 03:03:32;;;;;;;35.83;19.98;;;;;;;4.33;84.69;92695.91;2071320;69;20532;-76
2022/11/30 03:05:57;;;;;;;33.72;19.55;;;;;;;4.37;84.80;92701.84;2071523;69;20475;-74
2022/11/30 03:08:23;;;;;;;35.10;19.17;;;;;;;4.37;84.66;92701.09;2071808;69;20244;-81
2022/11/30 03:10:48;;;;;;;33.33;19.45;;;;;;;4.50;84.51;92698.75;2071709;69;20603;-78
2022/11/30 03:13:14;;;;;;;35.00;18.95;;;;;;;4.51;84.51;92702.25;2071435;69;20159;-77
2022/11/30 03:15:39;;;;;;;37.75;19.58;;;;;;;4.66;83.25;92712.53;2071405;69;20148;-72
2022/11/30 03:18:05;;;;;;;33.67;19.17;;;;;;;4.66;83.24;92712.53;2071335;69;20383;-74
2022/11/30 03:20:31;;;;;;;32.45;18.95;;;;;;;4.64;83.40;92715.91;2071445;69;20164;-73
2022/11/30 03:23:01;;;;;;;33.90;19.45;;;;;;;4.64;83.40;92715.91;2071795;69;20170;-72
2022/11/30 03:25:27;;;;;;;34.65;19.58;;;;;;;4.58;83.35;92710.56;2071045;69;20152;-72
2022/11/30 03:27:53;;;;;;;32.67;18.77;;;;;;;4.72;82.95;92718.59;2070989;69;20151;-72
2022/11/30 03:30:19;;;;;;;41.83;20.23;;;;;;;4.68;83.09;92716.25;2068298;69;20148;-74
2022/11/30 03:32:45;;;;;;;34.05;19.48;;;;;;;4.71;83.16;92715.06;2071153;69;20606;-77
2022/11/30 03:35:10;;;;;;;34.67;19.83;;;;;;;4.73;82.40;92714.53;2071364;69;20160;-72
2022/11/30 03:37:36;;;;;;;33.85;19.73;;;;;;;4.76;82.42;92718.94;2071634;69;20191;-73
2022/11/30 03:40:02;;;;;;;36.78;20.10;;;;;;;4.72;82.74;92716.56;2071428;69;20638;-76
2022/11/30 03:42:30;;;;;;;34.42;19.45;;;;;;;4.71;83.03;92725.50;2071467;69;20726;-73
2022/11/30 03:44:56;;;;;;;33.95;18.90;;;;;;;4.78;82.54;92705.91;2068197;69;20526;-73
2022/11/30 03:47:21;;;;;;;33.40;18.30;;;;;;;4.83;82.10;92720.91;2071337;69;20136;-74
2022/11/30 03:49:47;;;;;;;33.83;19.33;;;;;;;4.83;82.04;92716.06;2071224;69;20226;-74
2022/11/30 03:52:12;;;;;;;33.38;19.05;;;;;;;4.74;82.38;92718.78;2071291;69;20220;-74
2022/11/30 03:54:38;;;;;;;32.47;18.88;;;;;;;4.79;82.12;92721.31;2071537;69;20601;-73
2022/11/30 03:57:04;;;;;;;33.35;19.58;;;;;;;4.81;81.86;92715.16;2071504;69;20139;-76
2022/11/30 03:59:29;;;;;;;38.70;20.48;;;;;;;4.70;82.22;92713.59;2071403;69;20145;-76
2022/11/30 04:01:55;;;;;;;42.20;20.08;;;;;;;4.61;83.09;92722.63;2071349;69;20272;-75
2022/11/30 04:04:21;;;;;;;43.90;20.40;;;;;;;4.63;83.57;92722.78;2071444;69;20148;-80
2022/11/30 04:06:46;;;;;;;45.35;20.60;;;;;;;4.49;84.11;92719.56;2071631;69;20148;-74
2022/11/30 04:09:12;;;;;;;36.28;20.20;;;;;;;4.61;84.04;92722.63;2071226;69;20210;-74
2022/11/30 04:11:37;;;;;;;40.63;19.58;;;;;;;4.78;82.81;92722.66;2071338;69;20152;-84
2022/11/30 04:14:04;;;;;;;37.70;19.95;;;;;;;4.75;82.74;92714.69;2071222;69;20163;-85
2022/11/30 04:16:30;;;;;;;41.05;19.73;;;;;;;4.62;83.49;92717.78;2070967;69;20176;-77
2022/11/30 04:18:55;;;;;;;41.75;19.80;;;;;;;4.65;83.50;92716.63;2070502;69;20182;-78
2022/11/30 04:21:21;;;;;;;44.92;20.42;;;;;;;4.66;83.67;92724.41;2071236;69;20315;-79
2022/11/30 04:23:47;;;;;;;53.03;21.13;;;;;;;4.48;84.63;92720.13;2067934;69;20175;-77
2022/11/30 04:26:15;;;;;;;50.75;20.77;;;;;;;4.50;84.30;92714.75;2071195;69;20206;-79
2022/11/30 04:28:41;;;;;;;42.13;21.15;;;;;;;4.62;83.31;92712.94;2064707;69;20144;-77
2022/11/30 04:31:06;;;;;;;41.42;22.05;;;;;;;4.61;83.64;92717.03;2064553;69;20258;-78
2022/11/30 04:33:32;;;;;;;39.97;21.40;;;;;;;4.71;83.35;92706.72;2064396;69;20238;-72
2022/11/30 04:36:00;;;;;;;39.78;21.23;;;;;;;4.76;82.98;92722.47;2064465;69;20133;-72
2022/11/30 04:38:27;;;;;;;42.05;21.70;;;;;;;4.72;83.24;92713.78;2064513;69;20331;-73
2022/11/30 04:40:53;;;;;;;42.97;21.58;;;;;;;4.56;83.63;92720.81;2064553;69;20171;-72
2022/11/30 04:43:19;;;;;;;45.63;22.98;;;;;;;4.48;84.77;92722.91;2064671;69;20149;-72
2022/11/30 04:45:47;;;;;;;44.90;22.33;;;;;;;4.44;84.76;92719.78;2064652;69;20157;-72
2022/11/30 04:48:14;;;;;;;43.63;22.45;;;;;;;4.34;84.24;92714.84;2063876;69;20662;-73
2022/11/30 04:50:39;;;;;;;46.25;21.58;;;;;;;4.37;84.82;92718.56;2064456;69;20190;-75
2022/11/30 04:53:05;;;;;;;49.33;23.02;;;;;;;4.39;84.87;92720.75;2064525;69;20557;-74
2022/11/30 04:55:35;;;;;;;45.70;22.85;;;;;;;4.44;85.23;92720.53;2064551;69;20168;-73
2022/11/30 04:58:00;;;;;;;38.40;21.33;;;;;;;4.39;84.74;92721.50;2064541;69;20488;-72
2022/11/30 05:00:26;;;;;;;49.58;23.35;;;;;;;4.50;84.47;92723.84;2063789;69;20176;-72
2022/11/30 05:02:54;;;;;;;46.67;23.38;;;;;;;4.62;84.02;92726.13;2064385;69;20148;-72
2022/11/30 05:05:20;;;;;;;61.30;29.10;;;;;;;4.62;83.71;92728.94;2064542;69;20207;-72
2022/11/30 05:07:49;;;;;;;53.72;26.52;;;;;;;4.43;84.73;92726.69;2064384;69;20156;-72
2022/11/30 05:10:15;;;;;;;65.78;30.73;;;;;;;4.57;84.27;92727.84;2064394;69;20145;-76
2022/11/30 05:12:41;;;;;;;72.32;33.47;;;;;;;4.62;83.91;92720.56;2064475;69;20195;-73
2022/11/30 05:15:07;;;;;;;48.80;24.42;;;;;;;4.68;83.18;92727.38;2064966;69;20137;-73
2022/11/30 05:17:33;;;;;;;44.83;22.52;;;;;;;4.66;83.30;92729.25;2065172;69;20519;-74
2022/11/30 05:19:59;;;;;;;45.38;23.70;;;;;;;4.59;83.56;92728.78;2064683;69;20207;-81
2022/11/30 05:22:25;;;;;;;48.40;23.08;;;;;;;4.49;83.43;92727.19;2064971;69;20576;-73
2022/11/30 05:24:50;;;;;;;44.28;22.05;;;;;;;4.48;83.65;92725.69;2065119;69;20484;-75
2022/11/30 05:27:16;;;;;;;46.58;22.55;;;;;;;4.55;83.64;92727.69;2065058;69;20175;-77
2022/11/30 05:29:41;;;;;;;43.92;22.10;;;;;;;4.53;83.77;92725.47;2068464;69;20137;-77
2022/11/30 05:32:07;;;;;;;41.45;21.98;;;;;;;4.55;83.66;92722.13;2068609;69;20645;-81
2022/11/30 05:34:33;;;;;;;45.58;22.13;;;;;;;4.62;83.51;92735.25;2068440;69;20526;-73
2022/11/30 05:36:59;;;;;;;45.15;22.77;;;;;;;4.49;84.33;92729.97;2068724;69;20137;-72
2022/11/30 05:39:25;;;;;;;43.67;22.02;;;;;;;4.46;84.52;92731.13;2067964;69;20269;-79
2022/11/30 05:41:50;;;;;;;44.40;23.50;;;;;;;4.31;85.01;92729.22;2070053;69;20293;-72
2022/11/30 05:44:16;;;;;;;47.00;23.92;;;;;;;4.45;84.91;92724.81;2069280;69;20220;-73
2022/11/30 05:46:42;;;;;;;46.85;23.02;;;;;;;4.38;84.71;92736.00;2067912;69;20160;-74
2022/11/30 05:49:07;;;;;;;47.88;22.55;;;;;;;4.55;84.33;92730.47;2068378;69;20191;-75
2022/11/30 05:51:33;;;;;;;44.45;22.15;;;;;;;4.62;83.75;92738.03;2068512;69;20232;-76
2022/11/30 05:53:58;;;;;;;42.95;22.17;;;;;;;4.67;83.59;92730.72;2068379;69;20169;-75
2022/11/30 05:56:25;;;;;;;47.33;23.38;;;;;;;4.34;83.89;92734.34;2068390;69;20125;-73
2022/11/30 05:58:50;;;;;;;43.72;21.77;;;;;;;4.53;83.58;92733.81;2068305;69;20152;-76
2022/11/30 06:01:18;;;;;;;42.28;22.00;;;;;;;4.62;83.46;92742.88;2067967;69;20241;-78
2022/11/30 06:03:44;;;;;;;42.72;21.90;;;;;;;4.64;83.18;92738.22;2068334;69;20176;-72
2022/11/30 06:06:09;;;;;;;41.60;21.13;;;;;;;4.71;83.23;92739.44;2068627;69;20144;-73
2022/11/30 06:08:35;;;;;;;42.35;20.88;;;;;;;4.74;82.96;92741.81;2069243;69;20180;-73
2022/11/30 06:11:01;;;;;;;39.70;20.73;;;;;;;4.74;82.69;92739.03;2067794;69;20553;-76
2022/11/30 06:13:27;;;;;;;39.08;20.85;;;;;;;4.77;82.41;92737.16;2067718;69;20180;-75
2022/11/30 06:15:52;;;;;;;40.10;20.88;;;;;;;4.82;82.24;92741.75;2068346;69;20152;-74
2022/11/30 06:18:18;;;;;;;42.45;21.17;;;;;;;4.77;82.49;92743.47;2068396;69;20140;-77
2022/11/30 06:20:43;;;;;;;39.25;19.85;;;;;;;4.81;82.28;92745.84;2068535;69;20227;-77
2022/11/30 06:23:09;;;;;;;39.08;20.63;;;;;;;4.81;82.30;92754.97;2068343;69;20335;-74
2022/11/30 06:25:34;;;;;;;40.90;21.05;;;;;;;4.83;82.01;92751.59;2068524;69;20591;-80
2022/11/30 06:28:00;;;;;;;63.80;28.40;;;;;;;4.43;84.09;92754.56;2066152;69;20527;-72
2022/11/30 06:30:25;;;;;;;56.63;26.23;;;;;;;4.49;84.38;92760.63;2064374;69;20259;-73
2022/11/30 06:32:51;;;;;;;46.25;23.15;;;;;;;4.61;83.84;92753.28;2064828;69;20153;-72
2022/11/30 06:35:17;;;;;;;54.13;25.20;;;;;;;4.60;83.98;92751.81;2064869;69;20181;-72
2022/11/30 06:37:44;;;;;;;47.28;22.40;;;;;;;4.71;83.43;92751.31;2064924;69;20641;-73
2022/11/30 06:40:11;;;;;;;42.83;21.38;;;;;;;4.76;82.95;92752.41;2064323;69;20141;-78
2022/11/30 06:42:38;;;;;;;44.47;19.98;;;;;;;4.76;82.61;92755.94;2064384;69;20269;-77
2022/11/30 06:45:05;;;;;;;47.20;21.48;;;;;;;4.66;83.22;92765.50;2064882;69;20145;-82
2022/11/30 06:47:31;;;;;;;43.67;20.52;;;;;;;4.69;82.72;92751.19;2064897;69;20153;-77
2022/11/30 06:49:56;;;;;;;47.47;20.50;;;;;;;4.73;83.05;92756.34;2064926;69;20164;-83
2022/11/30 06:52:22;;;;;;;41.08;20.60;;;;;;;4.66;83.68;92760.69;2064955;69;20630;-79
2022/11/30 06:54:48;;;;;;;42.47;20.17;;;;;;;4.53;83.58;92763.75;2064311;69;20149;-74
2022/11/30 06:57:13;;;;;;;47.50;22.00;;;;;;;4.55;83.82;92759.09;2064911;69;20137;-73
2022/11/30 06:59:41;;;;;;;46.65;21.70;;;;;;;4.72;83.05;92763.97;2064868;69;20487;-73
2022/11/30 07:02:14;;;;;;;47.45;20.88;;;;;;;4.52;83.69;92770.66;2064903;69;20230;-73
2022/11/30 07:04:40;;;;;;;47.80;21.08;;;;;;;4.38;84.14;92761.84;2065059;69;20265;-73
2022/11/30 07:07:06;;;;;;;47.97;20.95;;;;;;;4.54;83.90;92770.84;2064846;69;20161;-72
2022/11/30 07:09:35;;;;;;;47.20;21.25;;;;;;;4.46;84.62;92770.16;2064896;69;20700;-72
2022/11/30 07:12:01;;;;;;;48.50;20.77;;;;;;;4.57;83.97;92775.25;2065067;69;20169;-73
2022/11/30 07:14:28;;;;;;;47.35;20.75;;;;;;;4.53;84.09;92772.84;2065011;69;20192;-76
2022/11/30 07:16:54;;;;;;;39.40;19.15;;;;;;;4.65;83.88;92766.84;2066500;69;20156;-73
2022/11/30 07:19:19;;;;;;;39.15;19.25;;;;;;;4.75;83.37;92776.78;2065374;69;20187;-81
2022/11/30 07:21:45;;;;;;;45.78;20.90;;;;;;;4.83;82.58;92768.34;2065158;69;20187;-76
2022/11/30 07:27:08;;;;;;;39.92;19.83;;;;;;;4.74;83.10;92778.09;2060876;69;20177;-72
2022/11/30 07:29:34;;;;;;;46.30;21.55;;;;;;;4.76;82.85;92774.72;2066585;69;20157;-77
2022/11/30 07:32:00;;;;;;;46.90;22.17;;;;;;;4.81;83.02;92771.72;2065241;69;20232;-82
2022/11/30 07:34:25;;;;;;;43.90;20.20;;;;;;;4.86;82.74;92770.00;2065214;69;20180;-77
2022/11/30 07:36:51;;;;;;;40.15;20.20;;;;;;;4.91;82.39;92771.06;2064972;69;20152;-80
2022/11/30 07:39:17;;;;;;;45.65;21.30;;;;;;;4.68;82.95;92768.50;2064867;69;20599;-80
2022/11/30 07:41:43;;;;;;;48.45;22.13;;;;;;;4.65;83.64;92778.00;2064933;69;20149;-74
2022/11/30 07:44:09;;;;;;;43.90;20.35;;;;;;;4.70;83.13;92774.22;2065219;69;20221;-73
2022/11/30 07:46:35;;;;;;;41.97;20.25;;;;;;;4.63;84.18;92775.78;2065131;69;20228;-77
2022/11/30 07:49:05;;;;;;;41.17;20.30;;;;;;;4.75;83.53;92776.78;2065090;69;20224;-72
2022/11/30 07:51:32;;;;;;;40.03;19.15;;;;;;;4.77;83.27;92767.84;2065034;69;20141;-72
2022/11/30 07:53:58;;;;;;;39.55;19.75;;;;;;;4.83;83.23;92780.22;2065218;69;20156;-74
2022/11/30 07:56:25;;;;;;;44.17;20.45;;;;;;;4.91;82.95;92771.81;2065131;69;20615;-87
2022/11/30 07:58:55;;;;;;;39.58;19.33;;;;;;;4.90;82.33;92783.53;2065223;69;20572;-87
2022/11/30 08:01:23;;;;;;;40.42;18.70;;;;;;;4.83;82.41;92768.34;2065177;69;20642;-82
2022/11/30 08:03:50;;;;;;;45.90;21.20;;;;;;;4.93;82.60;92768.44;2065023;69;20149;-89
2022/11/30 08:06:21;;;;;;;44.08;20.63;;;;;;;4.94;82.45;92776.22;2065016;69;20542;-86
2022/11/30 08:08:49;;;;;;;36.90;19.10;;;;;;;4.91;82.48;92768.28;2065137;69;20279;-88
2022/11/30 08:11:17;;;;;;;40.67;20.02;;;;;;;5.02;82.30;92770.56;2064508;69;20160;-83
2022/11/30 08:13:43;;;;;;;38.55;18.90;;;;;;;5.02;82.08;92776.88;2065554;69;20625;-78
2022/11/30 08:16:20;;;;;;;38.65;18.80;;;;;;;5.08;81.58;92776.66;2065779;69;20240;-78
2022/11/30 08:18:46;;;;;;;39.38;18.05;;;;;;;5.10;81.57;92774.03;2065595;69;20184;-88
2022/11/30 08:21:18;;;;;;;37.97;17.83;;;;;;;5.04;81.70;92773.53;2065377;69;20239;-80
2022/11/30 08:23:49;;;;;;;44.27;19.30;;;;;;;4.98;81.83;92773.75;2065083;69;20130;-75
2022/11/30 08:26:20;;;;;;;41.65;18.02;;;;;;;5.00;82.21;92776.00;2065150;69;20255;-75
2022/11/30 08:28:48;;;;;;;42.05;19.52;;;;;;;4.67;82.93;92783.72;2068176;69;20160;-72
2022/11/30 08:31:16;;;;;;;42.55;19.77;;;;;;;4.80;83.27;92780.63;2068096;69;20149;-72
2022/11/30 08:33:42;;;;;;;40.67;18.88;;;;;;;4.96;83.27;92778.44;2068287;69;20153;-72
2022/11/30 08:36:08;;;;;;;43.22;19.45;;;;;;;4.90;83.18;92775.16;2068233;69;20152;-73
2022/11/30 08:38:35;;;;;;;41.88;18.63;;;;;;;4.87;83.66;92777.03;2068315;69;20173;-90
2022/11/30 08:41:01;;;;;;;41.55;19.75;;;;;;;4.91;83.01;92785.75;2068507;69;20235;-82
2022/11/30 08:43:27;;;;;;;42.10;19.13;;;;;;;5.12;82.48;92781.81;2067599;69;20516;-75
2022/11/30 08:45:52;;;;;;;41.70;19.30;;;;;;;5.14;82.04;92776.41;2067284;69;20156;-75
2022/11/30 08:48:18;;;;;;;45.13;19.17;;;;;;;4.97;82.31;92783.44;2068368;69;20239;-73
2022/11/30 08:50:44;;;;;;;44.17;20.05;;;;;;;4.81;82.64;92779.31;2070531;69;20120;-79
2022/11/30 08:53:10;;;;;;;48.72;22.33;;;;;;;4.85;82.92;92785.97;2072811;69;20156;-73
2022/11/30 08:55:35;;;;;;;47.40;21.30;;;;;;;4.66;84.26;92798.97;2072380;69;20141;-79
2022/11/30 08:58:01;;;;;;;47.20;20.60;;;;;;;4.85;83.68;92801.97;2068824;69;20148;-85
2022/11/30 09:00:27;;;;;;;47.33;21.83;;;;;;;5.06;83.07;92801.59;2069635;69;20254;-79
2022/11/30 09:02:53;;;;;;;45.10;21.13;;;;;;;5.16;81.85;92808.00;2067248;69;20515;-76
2022/11/30 09:05:18;;;;;;;45.63;20.70;;;;;;;5.00;82.95;92813.00;2067955;69;20242;-74
2022/11/30 09:07:44;;;;;;;45.70;19.55;;;;;;;5.16;82.40;92810.81;2068057;69;20202;-76
2022/11/30 09:10:10;;;;;;;40.60;19.15;;;;;;;5.10;81.95;92808.25;2068109;69;20155;-73
2022/11/30 09:12:38;;;;;;;47.75;20.95;;;;;;;5.37;81.72;92809.69;2068279;69;20470;-72
2022/11/30 09:15:05;;;;;;;43.03;19.42;;;;;;;5.41;81.12;92807.94;2068252;69;20242;-72
2022/11/30 09:17:34;;;;;;;43.70;20.38;;;;;;;5.44;81.30;92814.44;2067840;69;20148;-71
2022/11/30 09:20:00;;;;;;;48.03;20.33;;;;;;;5.46;80.91;92812.53;2067948;69;20160;-73
2022/11/30 09:22:26;;;;;;;45.80;20.52;;;;;;;5.47;81.15;92816.81;2067993;69;20159;-73
2022/11/30 09:24:52;;;;;;;42.35;20.33;;;;;;;5.45;81.04;92813.88;2067875;69;20290;-72
2022/11/30 09:27:17;;;;;;;41.35;19.13;;;;;;;5.46;80.54;92812.53;2066821;69;20742;-72
2022/11/30 09:29:43;;;;;;;40.33;18.98;;;;;;;5.42;81.12;92811.47;2064510;69;20168;-72
2022/11/30 09:32:09;;;;;;;42.83;20.02;;;;;;;5.60;81.09;92810.91;2064638;69;20153;-73
2022/11/30 09:34:34;;;;;;;44.63;19.75;;;;;;;5.49;80.83;92810.66;2064494;69;20160;-73
2022/11/30 09:37:00;;;;;;;49.67;22.80;;;;;;;5.31;81.40;92805.06;2064524;69;20580;-74
2022/11/30 09:39:25;;;;;;;41.85;20.23;;;;;;;5.49;81.14;92810.66;2063870;69;20520;-81
2022/11/30 09:42:38;;;;;;;38.53;19.00;;;;;;;5.63;81.10;92806.19;2064493;69;20516;-79
2022/11/30 09:45:17;;;;;;;39.43;17.83;;;;;;;5.76;80.43;92803.06;2053809;70;20146;-73
2022/11/30 09:48:01;;;;;;;36.85;17.95;;;;;;;5.83;79.80;92798.72;2053813;70;20154;-73
2022/11/30 09:50:30;;;;;;;37.83;18.55;;;;;;;5.67;80.20;92794.63;2053753;70;20153;-74
2022/11/30 09:53:00;;;;;;;37.78;17.83;;;;;;;5.74;79.59;92797.31;2053984;70;20162;-73
2022/11/30 09:55:30;;;;;;;38.60;18.67;;;;;;;5.70;79.16;92799.78;2053817;70;20237;-82
2022/11/30 09:58:01;;;;;;;36.92;19.42;;;;;;;5.66;79.13;92799.47;2054179;70;20154;-73
2022/11/30 10:00:27;;;;;;;48.15;25.00;;;;;;;5.63;79.55;92800.59;2054150;69;20181;-73
2022/11/30 10:02:55;;;;;;;39.85;20.42;;;;;;;5.69;80.12;92792.72;2051321;70;20221;-77
2022/11/30 10:05:36;;;;;;;40.67;19.90;;;;;;;5.62;80.21;92799.13;2054255;69;20204;-74
2022/11/30 10:08:20;;;;;;;37.88;19.30;;;;;;;5.84;80.45;92800.19;2054545;70;20225;-76
2022/11/30 10:11:11;;;;;;;39.75;20.05;;;;;;;6.08;79.37;92793.00;2054538;70;20154;-76
2022/11/30 10:13:58;;;;;;;42.33;19.35;;;;;;;6.14;79.52;92793.50;2054431;70;20262;-78
2022/11/30 10:16:45;;;;;;;37.08;18.23;;;;;;;6.27;78.09;92790.31;2054325;69;20166;-73
2022/11/30 10:19:47;;;;;;;32.63;16.33;;;;;;;6.25;77.31;92789.41;2051325;70;20137;-75
2022/11/30 10:22:25;;;;;;;33.90;15.75;;;;;;;6.35;77.64;92790.19;2050870;70;20268;-73
2022/11/30 10:25:40;;;;;;;30.10;14.95;;;;;;;6.44;76.88;92788.78;2050916;70;20166;-74
2022/11/30 10:28:12;;;;;;;31.23;16.63;;;;;;;6.43;77.27;92774.06;2041091;70;20139;-72
2022/11/30 10:30:38;;;;;;;31.48;15.63;;;;;;;6.50;77.01;92783.63;2042247;70;20222;-79
2022/11/30 10:33:37;;;;;;;32.40;15.90;;;;;;;6.42;76.44;92777.44;2040643;70;20551;-74
2022/11/30 10:36:11;;;;;;;35.08;18.02;;;;;;;6.34;75.88;92772.69;2040581;70;20151;-77
2022/11/30 10:38:44;;;;;;;34.72;17.92;;;;;;;6.39;76.27;92778.59;2040707;70;20194;-72
2022/11/30 10:41:16;;;;;;;35.17;18.52;;;;;;;6.51;76.20;92774.69;2040530;70;20332;-82
2022/11/30 10:43:48;;;;;;;34.78;18.17;;;;;;;6.53;75.97;92766.44;2040689;70;20167;-73
2022/11/30 10:46:20;;;;;;;33.78;17.80;;;;;;;6.73;75.79;92767.22;2040633;70;20196;-71
2022/11/30 10:49:09;;;;;;;35.22;18.90;;;;;;;6.58;75.49;92759.09;2040743;70;20597;-71
2022/11/30 10:51:54;;;;;;;37.88;19.13;;;;;;;6.18;76.42;92765.84;2040692;70;20155;-79
2022/11/30 10:54:21;;;;;;;32.40;15.65;;;;;;;6.25;76.78;92761.47;2040603;70;20155;-78
2022/11/30 10:56:47;;;;;;;29.48;15.52;;;;;;;6.21;77.02;92759.09;2040500;70;20612;-75
2022/11/30 10:59:22;;;;;;;34.45;15.70;;;;;;;6.44;77.37;92760.81;2050457;69;20204;-73
2022/11/30 11:01:49;;;;;;;32.30;17.20;;;;;;;6.58;76.50;92765.41;2062857;69;20228;-89
2022/11/30 11:04:17;;;;;;;29.10;15.57;;;;;;;6.42;75.99;92757.88;2068259;69;20591;-71
2022/11/30 11:07:08;;;;;;;32.72;16.52;;;;;;;6.48;77.18;92756.25;2068200;69;20152;-74
2022/11/30 11:09:47;;;;;;;30.88;16.38;;;;;;;6.62;76.06;92756.59;2067985;69;20152;-73
2022/11/30 11:12:17;;;;;;;31.00;16.15;;;;;;;6.83;76.24;92754.03;2068455;69;20236;-73
2022/11/30 11:14:43;;;;;;;34.22;17.60;;;;;;;6.96;75.75;92752.84;2068167;69;20148;-72
2022/11/30 11:17:18;;;;;;;29.52;16.73;;;;;;;6.98;76.14;92746.69;2068212;69;20156;-77
2022/11/30 11:19:46;;;;;;;32.15;16.92;;;;;;;6.83;75.31;92751.22;2068184;69;20231;-76
2022/11/30 11:22:22;;;;;;;32.28;16.80;;;;;;;6.91;76.07;92739.13;2068287;69;20147;-72
2022/11/30 11:24:55;;;;;;;34.60;17.15;;;;;;;7.21;74.95;92740.66;2068123;69;20204;-74
2022/11/30 11:27:31;;;;;;;34.25;17.50;;;;;;;7.45;74.33;92744.50;2066754;69;20155;-80
2022/11/30 11:30:06;;;;;;;32.83;16.42;;;;;;;7.42;74.10;92745.66;2064864;69;20553;-81
2022/11/30 11:32:32;;;;;;;32.38;18.42;;;;;;;7.45;73.64;92748.03;2064842;69;20576;-78
2022/11/30 11:34:59;;;;;;;32.83;16.00;;;;;;;7.27;73.29;92752.31;2064813;69;20156;-80